Time;durP1;ratioP1;P1;durP2;ratioP2;P2;SDS_P1;SDS_P2;PMS_P1;PMS_P2;Temp;Humidity;BMP_temperature;BMP_pressure;BME280_temperature;BME280_humidity;BME280_pressure;Samples;Min_cycle;Max_cycle;Signal;HPM_P1;HPM_P2
2022/06/21 00:01:55;;;;;;;8.75;8.02;;;20.00;99.90;;;;;;5013571;28;20211;-92
2022/06/21 00:04:23;;;;;;;12.18;8.18;;;20.00;99.90;;;;;;5013737;28;20211;-92
2022/06/21 00:06:52;;;;;;;9.30;7.88;;;19.90;99.90;;;;;;5013327;28;20199;-91
2022/06/21 00:09:21;;;;;;;9.63;8.63;;;19.80;99.90;;;;;;4999662;28;20214;-92
2022/06/21 00:11:49;;;;;;;7.43;6.78;;;19.80;99.90;;;;;;5013237;28;20288;-92
2022/06/21 00:14:18;;;;;;;8.38;7.68;;;19.80;99.90;;;;;;5013784;28;20285;-92
2022/06/21 00:16:46;;;;;;;8.95;7.32;;;19.60;99.90;;;;;;5016969;28;20219;-92
2022/06/21 00:19:20;;;;;;;7.90;7.20;;;19.70;99.90;;;;;;5017085;28;20235;-92
2022/06/21 00:21:50;;;;;;;8.15;7.45;;;19.70;99.90;;;;;;5017222;28;20261;-91
2022/06/21 00:24:19;;;;;;;7.53;6.80;;;19.70;99.90;;;;;;5017877;28;20219;-91
2022/06/21 00:26:48;;;;;;;6.60;6.00;;;19.70;99.90;;;;;;5016918;28;20203;-91
2022/06/21 00:29:16;;;;;;;8.00;5.85;;;19.70;99.90;;;;;;5016947;28;20227;-91
2022/06/21 00:31:48;;;;;;;7.38;6.50;;;19.70;99.90;;;;;;5016827;28;20270;-92
2022/06/21 00:34:20;;;;;;;6.20;5.63;;;19.60;99.90;;;;;;5016685;28;20199;-91
2022/06/21 00:36:50;;;;;;;6.30;5.70;;;19.60;99.90;;;;;;5016931;28;20265;-90
2022/06/21 00:39:20;;;;;;;5.32;4.85;;;19.50;99.90;;;;;;5016521;28;20231;-90
2022/06/21 00:41:51;;;;;;;6.35;5.40;;;19.50;99.90;;;;;;5016634;28;20218;-91
2022/06/21 00:44:28;;;;;;;5.40;4.90;;;19.50;99.90;;;;;;5016965;28;20199;-90
2022/06/21 00:47:04;;;;;;;6.28;5.28;;;19.60;99.90;;;;;;5016490;28;20195;-91
2022/06/21 00:49:50;;;;;;;6.55;5.28;;;19.60;99.90;;;;;;5017034;28;20223;-91
2022/06/21 00:52:22;;;;;;;4.03;3.72;;;19.60;99.90;;;;;;5016764;28;20211;-90
2022/06/21 00:54:55;;;;;;;3.78;3.47;;;19.50;99.90;;;;;;5016640;28;20210;-91
2022/06/21 00:57:30;;;;;;;5.57;3.95;;;19.40;99.90;;;;;;5016083;28;20235;-90
2022/06/21 01:00:24;;;;;;;3.90;3.58;;;19.30;99.90;;;;;;5016422;28;20276;-90
2022/06/21 01:02:54;;;;;;;4.38;3.88;;;19.20;99.90;;;;;;5017539;28;20234;-89
2022/06/21 01:05:27;;;;;;;3.38;3.08;;;19.20;99.90;;;;;;5016890;28;20210;-90
2022/06/21 01:07:57;;;;;;;3.30;3.10;;;19.20;99.90;;;;;;5016292;28;20307;-90
2022/06/21 01:10:27;;;;;;;3.67;2.97;;;19.20;99.90;;;;;;5015181;28;20313;-90
2022/06/21 01:12:59;;;;;;;2.47;2.28;;;19.10;99.90;;;;;;5016469;28;20225;-89
2022/06/21 01:15:36;;;;;;;3.20;2.53;;;19.00;99.90;;;;;;5016459;28;20276;-90
2022/06/21 01:18:07;;;;;;;5.72;2.60;;;18.90;99.90;;;;;;5016574;28;20218;-90
2022/06/21 01:20:43;;;;;;;2.95;2.75;;;18.80;99.90;;;;;;5015991;28;20253;-89
2022/06/21 01:23:19;;;;;;;3.15;2.60;;;18.80;99.90;;;;;;5015942;28;20226;-89
2022/06/21 01:25:54;;;;;;;2.75;2.55;;;18.70;99.90;;;;;;5015694;28;20233;-90
2022/06/21 01:28:24;;;;;;;2.40;2.20;;;18.70;99.90;;;;;;5016017;28;20400;-89
2022/06/21 01:30:55;;;;;;;2.25;2.05;;;18.70;99.90;;;;;;5015452;28;20229;-89
2022/06/21 01:33:30;;;;;;;2.35;2.15;;;18.70;99.90;;;;;;5018138;28;20265;-89
2022/06/21 01:36:01;;;;;;;2.70;2.50;;;18.60;99.90;;;;;;5019401;28;20222;-89
2022/06/21 01:38:34;;;;;;;2.60;2.35;;;18.60;99.90;;;;;;5018742;28;20207;-89
2022/06/21 01:41:07;;;;;;;3.25;2.47;;;18.60;99.90;;;;;;5018350;28;20262;-89
2022/06/21 01:43:41;;;;;;;2.83;2.50;;;18.50;99.90;;;;;;5019505;28;20227;-89
2022/06/21 01:46:15;;;;;;;1.83;1.73;;;18.50;99.90;;;;;;5018906;28;20221;-89
2022/06/21 01:48:47;;;;;;;3.95;1.92;;;18.40;99.90;;;;;;5019243;28;20219;-89
2022/06/21 01:51:21;;;;;;;2.28;2.08;;;18.40;99.90;;;;;;5017436;28;20238;-89
2022/06/21 01:53:49;;;;;;;1.90;1.80;;;18.30;99.90;;;;;;5015899;28;20196;-89
2022/06/21 01:56:22;;;;;;;1.90;1.80;;;18.30;99.90;;;;;;5017482;28;20246;-89
2022/06/21 01:58:57;;;;;;;2.10;2.00;;;18.30;99.90;;;;;;5015741;28;20262;-89
2022/06/21 02:01:31;;;;;;;2.13;1.90;;;18.20;99.90;;;;;;5015328;28;20218;-89
2022/06/21 02:04:02;;;;;;;1.85;1.75;;;18.10;99.90;;;;;;5015414;28;20203;-89
2022/06/21 02:06:36;;;;;;;1.60;1.50;;;18.20;99.90;;;;;;5017189;28;20210;-89
2022/06/21 02:09:08;;;;;;;1.80;1.70;;;18.10;99.90;;;;;;5015580;28;20238;-89
2022/06/21 02:11:42;;;;;;;1.17;1.17;;;18.10;99.90;;;;;;5015152;28;20207;-89
2022/06/21 02:14:30;;;;;;;1.65;1.55;;;18.10;99.90;;;;;;5015356;28;20226;-89
2022/06/21 02:17:07;;;;;;;1.38;1.33;;;18.10;99.90;;;;;;5015141;28;20227;-90
2022/06/21 02:19:39;;;;;;;1.35;1.25;;;18.10;99.90;;;;;;5015409;28;20318;-89
2022/06/21 02:22:14;;;;;;;2.78;1.48;;;18.00;99.90;;;;;;5014420;28;20257;-89
2022/06/21 02:24:43;;;;;;;1.55;1.45;;;18.00;99.90;;;;;;5014845;28;20202;-89
2022/06/21 02:27:15;;;;;;;2.58;1.38;;;18.00;99.90;;;;;;5015972;28;20265;-89
2022/06/21 02:29:50;;;;;;;1.20;1.20;;;18.00;99.90;;;;;;5014741;28;20246;-89
2022/06/21 02:32:24;;;;;;;1.40;1.40;;;18.00;99.90;;;;;;5014972;28;20194;-89
2022/06/21 02:34:59;;;;;;;0.98;0.98;;;17.90;99.90;;;;;;5015012;28;20269;-89
2022/06/21 02:37:29;;;;;;;1.00;1.00;;;18.00;99.90;;;;;;5014228;28;20322;-89
2022/06/21 02:39:59;;;;;;;1.20;1.10;;;17.90;99.90;;;;;;5014849;28;20285;-89
2022/06/21 02:42:32;;;;;;;0.73;0.73;;;17.90;99.90;;;;;;5014363;28;20199;-89
2022/06/21 02:45:08;;;;;;;1.10;1.10;;;17.90;99.90;;;;;;5014367;28;20226;-89
2022/06/21 02:47:40;;;;;;;1.20;1.10;;;17.90;99.90;;;;;;5014072;28;20290;-90
2022/06/21 02:50:26;;;;;;;2.50;0.98;;;17.90;99.90;;;;;;5014020;28;20223;-90
2022/06/21 02:52:56;;;;;;;1.20;1.10;;;17.90;99.90;;;;;;5014806;28;20203;-89
2022/06/21 02:55:36;;;;;;;1.10;1.10;;;17.90;99.90;;;;;;5014160;28;20238;-90
2022/06/21 02:58:12;;;;;;;2.08;1.00;;;17.90;99.90;;;;;;5014359;28;20219;-89
2022/06/21 03:00:43;;;;;;;1.08;1.08;;;17.80;99.90;;;;;;5014050;28;20292;-90
2022/06/21 03:03:18;;;;;;;1.65;1.15;;;17.70;99.90;;;;;;5014161;28;20261;-90
2022/06/21 03:05:50;;;;;;;1.10;1.10;;;17.60;99.90;;;;;;5013748;28;20286;-90
2022/06/21 03:08:19;;;;;;;0.90;0.90;;;17.50;99.90;;;;;;4994195;28;20251;-89
2022/06/21 03:10:50;;;;;;;1.63;1.10;;;17.50;99.90;;;;;;4997575;28;20195;-89
2022/06/21 03:13:22;;;;;;;1.00;1.00;;;17.50;99.90;;;;;;4994399;28;20255;-90
2022/06/21 03:15:55;;;;;;;0.90;0.90;;;17.50;99.90;;;;;;4994246;28;20235;-90
2022/06/21 03:18:26;;;;;;;0.77;0.77;;;17.50;99.90;;;;;;5013400;28;20233;-90
2022/06/21 03:20:56;;;;;;;0.90;0.90;;;17.40;99.90;;;;;;4994429;28;20283;-89
2022/06/21 03:23:25;;;;;;;1.10;1.10;;;17.30;99.90;;;;;;5012466;28;20203;-90
2022/06/21 03:25:57;;;;;;;1.30;1.08;;;17.30;99.90;;;;;;5014127;28;20219;-90
2022/06/21 03:28:33;;;;;;;0.98;0.98;;;17.30;99.90;;;;;;5013904;28;20223;-90
2022/06/21 03:31:08;;;;;;;1.58;1.48;;;17.20;99.90;;;;;;5014006;28;20267;-90
2022/06/21 03:33:40;;;;;;;0.93;0.93;;;17.20;99.90;;;;;;5013715;28;20206;-90
2022/06/21 03:36:11;;;;;;;1.80;1.17;;;17.10;99.90;;;;;;5014199;28;20202;-89
2022/06/21 03:38:43;;;;;;;1.00;1.00;;;17.00;99.90;;;;;;5012657;28;20262;-90
2022/06/21 03:44:04;;;;;;;1.20;1.10;;;17.10;99.90;;;;;;5013860;28;20283;-89
2022/06/21 03:46:42;;;;;;;1.20;1.10;;;17.10;99.90;;;;;;5013721;28;20211;-90
2022/06/21 03:49:18;;;;;;;19.88;1.65;;;17.10;99.90;;;;;;5012732;28;20302;-90
2022/06/21 03:51:48;;;;;;;1.27;1.17;;;17.20;99.90;;;;;;5013428;28;20203;-90
2022/06/21 03:54:25;;;;;;;1.88;1.77;;;17.10;99.90;;;;;;5013631;28;20264;-80
2022/06/21 03:56:58;;;;;;;2.15;1.50;;;17.10;99.90;;;;;;5013556;28;20207;-80
2022/06/21 03:59:35;;;;;;;2.53;1.80;;;17.20;99.90;;;;;;5013459;28;20249;-80
2022/06/21 04:02:14;;;;;;;1.25;1.13;;;17.30;99.90;;;;;;5013343;28;20213;-80
2022/06/21 04:04:52;;;;;;;1.42;1.23;;;17.30;99.90;;;;;;5013769;28;20286;-87
2022/06/21 04:07:26;;;;;;;1.60;1.40;;;17.40;99.90;;;;;;5013737;28;20282;-87
2022/06/21 04:10:02;;;;;;;1.30;1.20;;;17.40;99.90;;;;;;5013713;28;20226;-87
2022/06/21 04:12:37;;;;;;;1.48;1.38;;;17.40;99.90;;;;;;5013332;28;20211;-87
2022/06/21 04:15:12;;;;;;;1.33;1.10;;;17.40;99.90;;;;;;5013935;28;20207;-87
2022/06/21 04:17:56;;;;;;;1.33;1.23;;;17.40;99.90;;;;;;5013421;28;20226;-87
2022/06/21 04:20:39;;;;;;;1.02;1.02;;;17.40;99.90;;;;;;5012908;28;20253;-90
2022/06/21 04:23:15;;;;;;;1.38;1.27;;;17.40;99.90;;;;;;5013455;28;20207;-86
2022/06/21 04:25:47;;;;;;;2.22;1.52;;;17.40;99.90;;;;;;5013738;28;20209;-87
2022/06/21 04:28:21;;;;;;;1.73;1.23;;;17.40;99.90;;;;;;5013414;28;20190;-87
2022/06/21 04:30:56;;;;;;;1.60;1.40;;;17.40;99.90;;;;;;5013161;28;20261;-87
2022/06/21 04:33:30;;;;;;;1.42;1.33;;;17.40;99.90;;;;;;5013477;28;20206;-87
2022/06/21 04:36:03;;;;;;;1.00;1.00;;;17.30;99.90;;;;;;5012955;28;20211;-87
2022/06/21 04:38:36;;;;;;;1.30;1.23;;;17.30;99.90;;;;;;5012138;28;20250;-87
2022/06/21 04:41:08;;;;;;;1.50;1.40;;;17.50;99.90;;;;;;5013244;28;20207;-87
2022/06/21 04:43:42;;;;;;;1.77;1.60;;;17.50;99.90;;;;;;5013025;28;20235;-87
2022/06/21 04:46:17;;;;;;;1.40;1.27;;;17.70;99.90;;;;;;5013084;28;20226;-87
2022/06/21 04:48:53;;;;;;;2.17;1.75;;;17.80;99.90;;;;;;5013181;28;20246;-88
2022/06/21 04:51:26;;;;;;;1.15;1.15;;;17.80;99.90;;;;;;5012971;28;20198;-88
2022/06/21 04:53:58;;;;;;;1.10;1.10;;;17.80;99.90;;;;;;5012960;28;20211;-88
2022/06/21 04:56:50;;;;;;;1.30;1.20;;;17.60;99.90;;;;;;5013152;28;20278;-88
2022/06/21 04:59:24;;;;;;;1.23;1.13;;;17.60;99.90;;;;;;5012985;28;20266;-88
2022/06/21 05:01:53;;;;;;;1.75;1.30;;;17.60;99.90;;;;;;5014676;28;20210;-89
2022/06/21 05:04:27;;;;;;;1.92;1.70;;;17.50;99.90;;;;;;5016824;28;20290;-88
2022/06/21 05:06:59;;;;;;;1.48;1.38;;;17.50;99.90;;;;;;5016850;28;20293;-88
2022/06/21 05:09:30;;;;;;;1.42;1.30;;;17.50;99.90;;;;;;5016488;28;20277;-88
2022/06/21 05:12:05;;;;;;;4.43;1.70;;;17.50;99.90;;;;;;5015791;28;20266;-88
2022/06/21 05:14:39;;;;;;;1.30;1.20;;;17.60;99.90;;;;;;5016083;28;20199;-88
2022/06/21 05:17:12;;;;;;;1.40;1.30;;;17.60;99.90;;;;;;5016726;28;20215;-88
2022/06/21 05:19:47;;;;;;;1.63;1.52;;;17.60;99.90;;;;;;5015827;28;20314;-88
2022/06/21 05:22:19;;;;;;;1.40;1.27;;;17.70;99.90;;;;;;5016163;28;20293;-88
2022/06/21 05:24:48;;;;;;;2.30;1.50;;;17.80;99.90;;;;;;5016199;28;20210;-88
2022/06/21 05:27:23;;;;;;;3.22;1.75;;;17.70;99.90;;;;;;5016156;28;20230;-88
2022/06/21 05:30:09;;;;;;;1.73;1.63;;;17.70;99.90;;;;;;5015834;28;20288;-88
2022/06/21 05:32:41;;;;;;;2.13;1.63;;;17.80;99.90;;;;;;5016125;28;20203;-89
2022/06/21 05:35:17;;;;;;;3.85;1.52;;;17.80;99.90;;;;;;5016061;28;20199;-89
2022/06/21 05:37:52;;;;;;;1.73;1.63;;;17.80;99.90;;;;;;5015373;28;20230;-88
2022/06/21 05:40:31;;;;;;;2.05;1.85;;;17.80;99.90;;;;;;5015880;28;20235;-89
2022/06/21 05:43:01;;;;;;;2.75;1.98;;;17.70;99.90;;;;;;5015600;28;20219;-78
2022/06/21 05:45:35;;;;;;;4.22;2.65;;;17.70;99.90;;;;;;5015693;28;20198;-80
2022/06/21 05:48:09;;;;;;;2.00;1.80;;;17.90;99.90;;;;;;5016217;28;20198;-79
2022/06/21 05:50:39;;;;;;;2.53;2.33;;;17.90;99.90;;;;;;5015789;28;20230;-79
2022/06/21 05:53:12;;;;;;;7.07;1.90;;;18.10;99.90;;;;;;5015506;28;20286;-79
2022/06/21 05:55:44;;;;;;;2.00;1.80;;;18.20;99.90;;;;;;5015701;28;20196;-81
2022/06/21 05:58:21;;;;;;;2.72;1.40;;;18.30;99.90;;;;;;5015974;28;20302;-80
2022/06/21 06:00:55;;;;;;;1.55;1.45;;;18.40;99.90;;;;;;5015839;28;20287;-80
2022/06/21 06:03:30;;;;;;;1.92;1.73;;;18.50;99.90;;;;;;5015551;28;20227;-81
2022/06/21 06:06:05;;;;;;;1.48;1.38;;;18.70;99.90;;;;;;5015625;28;20207;-79
2022/06/21 06:08:37;;;;;;;1.77;1.38;;;18.70;99.90;;;;;;5015267;28;20195;-90
2022/06/21 06:11:15;;;;;;;1.48;1.38;;;18.60;99.90;;;;;;5015439;28;20236;-90
2022/06/21 06:13:44;;;;;;;2.17;1.40;;;18.50;99.90;;;;;;5014293;28;20218;-91
2022/06/21 06:16:35;;;;;;;1.67;1.58;;;18.60;99.90;;;;;;5015996;28;20210;-90
2022/06/21 06:19:18;;;;;;;2.95;2.08;;;18.90;99.90;;;;;;5015878;28;20227;-89
2022/06/21 06:21:54;;;;;;;1.77;1.60;;;18.70;99.90;;;;;;5015895;28;20207;-89
2022/06/21 06:24:30;;;;;;;2.42;2.13;;;18.60;99.90;;;;;;5014667;28;20209;-89
2022/06/21 06:27:01;;;;;;;1.52;1.33;;;18.40;99.90;;;;;;5013968;28;20213;-89
2022/06/21 06:29:37;;;;;;;1.85;1.67;;;18.50;99.90;;;;;;5014887;28;20227;-90
2022/06/21 06:32:14;;;;;;;1.33;1.33;;;18.60;99.90;;;;;;5014807;28;20239;-90
2022/06/21 06:34:47;;;;;;;2.38;1.38;;;18.70;99.90;;;;;;5014737;28;20280;-89
2022/06/21 06:37:30;;;;;;;4.80;1.65;;;18.80;99.90;;;;;;5014804;28;20215;-89
2022/06/21 06:39:59;;;;;;;1.65;1.40;;;18.80;99.90;;;;;;5014479;28;20231;-91
2022/06/21 06:42:30;;;;;;;1.73;1.60;;;18.70;99.90;;;;;;5014447;28;20241;-88
2022/06/21 06:45:02;;;;;;;1.85;1.58;;;18.50;99.90;;;;;;5014488;28;20233;-88
2022/06/21 06:47:39;;;;;;;1.63;1.52;;;18.50;99.90;;;;;;5014767;28;20207;-89
2022/06/21 06:50:15;;;;;;;2.13;1.80;;;18.60;99.90;;;;;;5014303;28;20226;-89
2022/06/21 06:52:50;;;;;;;1.55;1.45;;;18.80;99.90;;;;;;5014858;28;20199;-90
2022/06/21 06:55:26;;;;;;;3.97;2.38;;;19.00;99.90;;;;;;5013686;28;20203;-86
2022/06/21 06:58:23;;;;;;;2.17;1.55;;;19.10;99.90;;;;;;5013950;28;20214;-85
2022/06/21 07:00:57;;;;;;;2.65;1.23;;;19.30;99.90;;;;;;5014237;28;20270;-88
2022/06/21 07:04:14;;;;;;;1.85;1.65;;;19.40;99.90;;;;;;5014572;28;20203;-91
2022/06/21 07:06:48;;;;;;;1.73;1.50;;;19.50;99.90;;;;;;4994163;28;20235;-89
2022/06/21 07:10:00;;;;;;;2.15;1.95;;;19.70;99.90;;;;;;4993338;28;20247;-93
2022/06/21 07:12:36;;;;;;;1.55;1.45;;;19.90;99.90;;;;;;5004601;28;20239;-91
2022/06/21 07:15:06;;;;;;;1.77;1.65;;;20.20;99.90;;;;;;5013817;28;20233;-89
2022/06/21 07:17:40;;;;;;;1.15;1.15;;;20.50;99.90;;;;;;5013689;28;20203;-91
2022/06/21 07:20:20;;;;;;;3.15;1.40;;;21.10;99.90;;;;;;5013073;28;20227;-90
2022/06/21 07:22:49;;;;;;;1.33;1.23;;;22.00;99.90;;;;;;5013841;28;20207;-91
2022/06/21 07:25:28;;;;;;;2.65;1.52;;;22.30;98.40;;;;;;5012473;28;20207;-90
2022/06/21 07:28:00;;;;;;;2.10;1.90;;;23.00;98.10;;;;;;5013371;28;20235;-90
2022/06/21 07:30:38;;;;;;;1.60;1.50;;;23.40;97.60;;;;;;5012860;28;20250;-91
2022/06/21 07:33:13;;;;;;;1.90;1.80;;;23.90;96.00;;;;;;5013382;28;20215;-90
2022/06/21 07:35:46;;;;;;;2.97;1.85;;;24.50;95.80;;;;;;5012759;28;20222;-91
2022/06/21 07:38:20;;;;;;;1.13;1.13;;;25.20;93.30;;;;;;5012820;28;20218;-90
2022/06/21 07:40:55;;;;;;;1.65;1.55;;;25.50;91.80;;;;;;5012878;28;20234;-91
2022/06/21 07:43:32;;;;;;;1.98;1.70;;;26.00;90.70;;;;;;5013451;28;20264;-91
2022/06/21 07:46:03;;;;;;;2.03;1.83;;;26.70;89.30;;;;;;5013626;28;20264;-90
2022/06/21 07:48:39;;;;;;;1.75;1.50;;;26.90;86.80;;;;;;5013200;28;20207;-90
2022/06/21 07:51:12;;;;;;;2.15;1.58;;;27.40;84.10;;;;;;5013416;28;20206;-91
2022/06/21 07:53:45;;;;;;;1.75;1.65;;;27.50;82.90;;;;;;5012909;28;20290;-91
2022/06/21 07:56:18;;;;;;;2.53;1.50;;;28.10;83.60;;;;;;5013375;28;20207;-91
2022/06/21 07:58:59;;;;;;;1.48;1.40;;;29.10;79.10;;;;;;5013221;28;20226;-91
2022/06/21 08:07:32;;;;;;;1.60;1.50;;;31.00;66.30;;;;;;5012776;28;20202;-91
2022/06/21 08:10:07;;;;;;;1.63;1.52;;;31.40;67.10;;;;;;5013089;28;20310;-91
2022/06/21 08:12:37;;;;;;;1.35;1.27;;;31.90;68.00;;;;;;5013034;28;20230;-91
2022/06/21 08:15:09;;;;;;;1.98;1.70;;;33.00;62.90;;;;;;5013231;28;20293;-92
2022/06/21 08:17:46;;;;;;;3.65;1.75;;;32.90;63.00;;;;;;5013004;28;20337;-91
2022/06/21 08:20:22;;;;;;;1.25;1.23;;;32.20;59.00;;;;;;5012520;28;20230;-92
2022/06/21 08:23:04;;;;;;;1.83;1.30;;;31.60;59.90;;;;;;5012834;28;20252;-91
2022/06/21 08:25:41;;;;;;;1.40;1.30;;;30.90;60.70;;;;;;5012962;28;20202;-91
2022/06/21 08:28:17;;;;;;;1.95;1.83;;;31.60;61.60;;;;;;5012992;28;20272;-91
2022/06/21 08:30:51;;;;;;;1.50;1.40;;;31.80;59.70;;;;;;5012389;28;20218;-91
2022/06/21 08:33:25;;;;;;;1.70;1.58;;;31.70;58.50;;;;;;5012771;28;20291;-91
2022/06/21 08:36:01;;;;;;;1.70;1.60;;;31.70;58.70;;;;;;5014234;28;20289;-91
2022/06/21 08:38:37;;;;;;;1.63;1.52;;;32.30;58.20;;;;;;5016621;28;20264;-91
2022/06/21 08:41:56;;;;;;;1.50;1.40;;;32.40;57.80;;;;;;5016140;28;20230;-92
2022/06/21 08:48:30;;;;;;;1.70;1.60;;;32.70;57.20;;;;;;5006567;28;20206;-92
2022/06/21 08:51:39;;;;;;;1.40;1.30;;;33.30;55.40;;;;;;5016451;28;20207;-92
2022/06/21 08:54:17;;;;;;;2.65;1.80;;;33.60;55.00;;;;;;5016362;28;20237;-92
2022/06/21 08:57:03;;;;;;;1.73;1.27;;;33.20;53.60;;;;;;5016146;28;20225;-92
2022/06/21 08:59:45;;;;;;;2.33;1.58;;;33.20;54.40;;;;;;5015868;28;20226;-92
2022/06/21 09:02:25;;;;;;;1.27;1.17;;;33.40;53.20;;;;;;5016129;28;20221;-92
2022/06/21 09:05:12;;;;;;;1.92;1.55;;;33.30;52.90;;;;;;5016013;28;20210;-92
2022/06/21 09:08:10;;;;;;;1.45;1.27;;;31.90;52.20;;;;;;5016162;28;20211;-91
2022/06/21 09:10:55;;;;;;;2.58;2.13;;;32.20;55.60;;;;;;5015461;28;20214;-92
2022/06/21 09:13:40;;;;;;;1.55;1.45;;;32.70;54.60;;;;;;5015813;28;20202;-92
2022/06/21 09:16:17;;;;;;;1.52;1.40;;;32.00;52.90;;;;;;5016309;28;20226;-92
2022/06/21 09:18:59;;;;;;;3.28;1.88;;;31.50;52.80;;;;;;5015798;28;20224;-91
2022/06/21 09:21:43;;;;;;;1.42;1.35;;;32.20;55.30;;;;;;5015643;28;20229;-93
2022/06/21 09:24:23;;;;;;;1.17;1.08;;;32.50;52.90;;;;;;5015818;28;20230;-92
2022/06/21 09:26:56;;;;;;;1.65;1.27;;;31.60;52.90;;;;;;5016046;28;20202;-92
2022/06/21 09:29:32;;;;;;;1.45;1.35;;;31.10;51.70;;;;;;5015973;28;20234;-92
2022/06/21 09:32:17;;;;;;;1.98;1.80;;;30.00;53.20;;;;;;5015742;28;20218;-92
2022/06/21 09:35:00;;;;;;;1.58;1.48;;;30.20;56.40;;;;;;5015892;28;20211;-93
2022/06/21 09:37:42;;;;;;;1.75;1.23;;;30.50;54.00;;;;;;5015297;28;20241;-92
2022/06/21 09:40:18;;;;;;;2.42;1.60;;;30.50;54.20;;;;;;5015195;28;20235;-92
2022/06/21 09:43:17;;;;;;;1.60;1.50;;;30.40;52.60;;;;;;5015520;28;20209;-92
2022/06/21 09:46:01;;;;;;;1.50;1.40;;;29.40;51.90;;;;;;5015619;28;20207;-92
2022/06/21 09:48:37;;;;;;;1.20;1.10;;;29.80;53.10;;;;;;5014331;28;20206;-92
2022/06/21 09:51:36;;;;;;;1.98;1.33;;;30.30;53.10;;;;;;5015355;28;20384;-93
2022/06/21 09:54:23;;;;;;;1.85;1.50;;;30.70;52.80;;;;;;5015551;28;20210;-92
2022/06/21 09:57:03;;;;;;;1.40;1.30;;;31.20;52.80;;;;;;5015310;28;20226;-92
2022/06/21 09:59:38;;;;;;;1.52;1.40;;;31.30;52.70;;;;;;5014912;28;20234;-93
2022/06/21 10:02:13;;;;;;;1.17;1.08;;;30.50;53.40;;;;;;5014695;28;20237;-92
2022/06/21 10:05:48;;;;;;;;;;;;;;;;;;;;;
2022/06/21 10:08:51;;;;;;;4.32;2.20;;;30.40;52.60;;;;;;4939283;28;20210;-92
2022/06/21 10:11:41;;;;;;;1.55;1.45;;;31.10;51.70;;;;;;5013101;28;20252;-92
2022/06/21 10:14:44;;;;;;;1.30;1.20;;;31.00;49.30;;;;;;5015243;28;20259;-92
2022/06/21 10:17:42;;;;;;;1.30;1.20;;;31.00;52.70;;;;;;5015212;28;20206;-93
2022/06/21 10:20:32;;;;;;;1.27;1.17;;;31.70;50.50;;;;;;5014726;28;20246;-93
2022/06/21 10:23:10;;;;;;;1.35;1.25;;;32.10;49.30;;;;;;5014735;28;20233;-92
2022/06/21 10:25:48;;;;;;;1.38;1.27;;;31.60;49.40;;;;;;5014614;28;20207;-94
2022/06/21 10:28:50;;;;;;;1.20;1.10;;;31.50;49.40;;;;;;5014591;28;20206;-92
2022/06/21 10:31:54;;;;;;;3.53;1.50;;;30.70;50.20;;;;;;5014081;28;20225;-93
2022/06/21 10:34:55;;;;;;;1.80;1.50;;;30.40;53.60;;;;;;5014492;28;20229;-92
2022/06/21 10:38:01;;;;;;;2.42;1.65;;;30.70;53.30;;;;;;5014269;28;20278;-93
2022/06/21 10:40:59;;;;;;;1.63;1.30;;;31.10;51.30;;;;;;5014137;28;20230;-92
2022/06/21 10:43:52;;;;;;;2.45;1.50;;;31.10;51.10;;;;;;5014588;28;20195;-92
2022/06/21 10:46:25;;;;;;;1.65;1.55;;;30.70;50.30;;;;;;5014205;28;20227;-91
2022/06/21 10:49:36;;;;;;;1.40;1.30;;;30.50;53.00;;;;;;5013959;28;20223;-92
2022/06/21 10:52:35;;;;;;;1.35;1.25;;;30.60;52.00;;;;;;5003344;28;20207;-92
2022/06/21 10:55:33;;;;;;;1.20;1.10;;;30.90;50.70;;;;;;4985143;28;20219;-92
2022/06/21 10:58:08;;;;;;;1.70;1.30;;;31.20;53.30;;;;;;5014159;28;20261;-93
2022/06/21 11:04:13;;;;;;;1.50;1.40;;;31.30;50.30;;;;;;5013885;28;20202;-92
2022/06/21 11:06:52;;;;;;;1.30;1.23;;;30.80;50.70;;;;;;5014169;28;20218;-93
2022/06/21 11:09:46;;;;;;;1.50;1.40;;;31.00;49.50;;;;;;5013750;28;20250;-94
2022/06/21 11:16:05;;;;;;;1.65;1.20;;;31.90;49.00;;;;;;5013937;28;20201;-93
2022/06/21 11:19:07;;;;;;;1.63;1.45;;;32.20;48.50;;;;;;5014012;28;20211;-93
2022/06/21 11:21:58;;;;;;;1.45;1.13;;;31.50;49.90;;;;;;5013469;28;20223;-92
2022/06/21 11:24:36;;;;;;;1.02;1.02;;;31.90;50.80;;;;;;5013528;28;20298;-93
2022/06/21 11:27:20;;;;;;;2.03;1.40;;;32.50;47.90;;;;;;5013622;28;20229;-92
2022/06/21 11:30:03;;;;;;;1.20;1.10;;;32.90;48.80;;;;;;5013127;28;20253;-93
2022/06/21 11:32:38;;;;;;;1.45;1.33;;;33.00;50.80;;;;;;5013307;28;20206;-92
2022/06/21 11:35:27;;;;;;;1.40;1.30;;;32.50;45.90;;;;;;5013411;28;20203;-92
2022/06/21 11:38:32;;;;;;;1.55;1.20;;;32.30;47.90;;;;;;5012807;28;20229;-92
2022/06/21 11:41:08;;;;;;;1.30;1.20;;;32.30;47.80;;;;;;5013211;28;20232;-92
2022/06/21 11:43:49;;;;;;;1.00;0.90;;;32.20;45.00;;;;;;5012708;28;20226;-92
2022/06/21 11:46:37;;;;;;;2.38;1.10;;;31.70;45.30;;;;;;5011843;28;20322;-93
2022/06/21 11:49:36;;;;;;;1.77;1.30;;;31.80;46.00;;;;;;5013029;28;20222;-93
2022/06/21 11:52:46;;;;;;;1.67;1.17;;;31.60;47.30;;;;;;5013012;28;20238;-92
2022/06/21 11:55:36;;;;;;;1.20;1.20;;;31.70;48.60;;;;;;4953033;28;20209;-92
2022/06/21 11:58:22;;;;;;;1.63;1.50;;;32.10;49.50;;;;;;5008606;28;20215;-92
2022/06/21 12:01:18;;;;;;;1.73;1.60;;;32.30;45.70;;;;;;5012439;28;20214;-92
2022/06/21 12:04:13;;;;;;;1.25;1.15;;;32.40;45.10;;;;;;5004011;28;20289;-92
2022/06/21 12:06:54;;;;;;;1.13;1.13;;;32.10;46.70;;;;;;5013235;28;20286;-93
2022/06/21 12:09:35;;;;;;;1.48;1.23;;;31.90;46.70;;;;;;5013151;28;20235;-93
2022/06/21 12:12:27;;;;;;;1.73;1.58;;;32.00;50.30;;;;;;5016158;28;20203;-93
2022/06/21 12:15:34;;;;;;;1.35;1.23;;;32.30;50.60;;;;;;5017016;28;20270;-92
2022/06/21 12:18:08;;;;;;;1.50;1.40;;;32.70;48.20;;;;;;5016938;28;20206;-92
2022/06/21 12:20:44;;;;;;;1.20;1.13;;;32.70;46.40;;;;;;5016459;28;20226;-93
2022/06/21 12:23:25;;;;;;;1.52;1.38;;;32.50;46.10;;;;;;5016857;28;20222;-93
2022/06/21 12:26:13;;;;;;;1.42;1.10;;;32.40;47.10;;;;;;5017049;28;20211;-92
2022/06/21 12:28:47;;;;;;;1.20;1.17;;;32.30;46.10;;;;;;5016756;28;20246;-92
2022/06/21 12:31:39;;;;;;;1.30;1.20;;;32.40;45.70;;;;;;5016515;28;20306;-92
2022/06/21 12:34:12;;;;;;;1.45;1.35;;;31.90;45.50;;;;;;5017274;28;20290;-92
2022/06/21 12:36:47;;;;;;;1.60;1.40;;;31.70;47.80;;;;;;5017200;28;20280;-93
2022/06/21 12:39:32;;;;;;;2.85;1.42;;;31.70;47.50;;;;;;5016337;28;20235;-93
2022/06/21 12:42:30;;;;;;;1.30;1.20;;;31.80;46.50;;;;;;5016258;28;20218;-93
2022/06/21 12:45:21;;;;;;;16.40;1.50;;;31.70;47.50;;;;;;5016595;28;20211;-92
2022/06/21 12:48:07;;;;;;;4.10;1.30;;;31.60;48.40;;;;;;5016445;28;20207;-92
2022/06/21 12:54:24;;;;;;;2.05;1.58;;;31.20;46.80;;;;;;5004732;28;20293;-91
2022/06/21 12:57:24;;;;;;;1.48;1.38;;;31.10;45.40;;;;;;5011661;28;20237;-92
2022/06/21 13:00:19;;;;;;;4.40;1.30;;;31.10;48.30;;;;;;4992252;28;20285;-94
2022/06/21 13:03:15;;;;;;;1.23;1.13;;;31.00;47.70;;;;;;5016001;28;20253;-92
2022/06/21 13:06:02;;;;;;;1.67;1.35;;;30.80;47.60;;;;;;5016707;28;20206;-92
2022/06/21 13:09:06;;;;;;;1.38;1.27;;;30.70;47.80;;;;;;5015943;28;20203;-92
2022/06/21 13:12:00;;;;;;;1.38;1.27;;;30.70;47.90;;;;;;5015701;28;20269;-92
2022/06/21 13:14:58;;;;;;;2.45;1.48;;;30.60;48.40;;;;;;5016011;28;20226;-92
2022/06/21 13:18:00;;;;;;;1.25;1.23;;;30.60;48.00;;;;;;5016372;28;20207;-91
2022/06/21 13:20:38;;;;;;;1.55;1.30;;;29.90;47.70;;;;;;5015565;28;20223;-92
2022/06/21 13:23:14;;;;;;;1.73;1.33;;;29.70;50.30;;;;;;5016248;28;20218;-91
2022/06/21 13:25:54;;;;;;;1.15;1.15;;;29.70;49.30;;;;;;5015412;28;20222;-92
2022/06/21 13:28:43;;;;;;;2.88;1.65;;;30.00;49.70;;;;;;5015558;28;20213;-92
2022/06/21 13:31:20;;;;;;;1.35;1.25;;;29.90;46.70;;;;;;5015140;28;20248;-93
2022/06/21 13:34:02;;;;;;;1.25;1.17;;;29.40;46.50;;;;;;5015739;28;20203;-92
2022/06/21 13:36:39;;;;;;;1.85;1.23;;;29.40;46.70;;;;;;5016758;28;20265;-92
2022/06/21 13:39:27;;;;;;;1.35;1.25;;;29.40;47.80;;;;;;5016374;28;20272;-92
2022/06/21 13:44:58;;;;;;;1.92;1.52;;;29.20;49.00;;;;;;5016706;28;20254;-92
2022/06/21 13:47:32;;;;;;;1.38;1.27;;;29.30;48.60;;;;;;5016557;28;20207;-92
2022/06/21 13:50:15;;;;;;;1.17;1.08;;;29.00;48.10;;;;;;5016665;28;20296;-92
2022/06/21 13:52:56;;;;;;;2.53;1.15;;;28.80;48.60;;;;;;5017140;28;20199;-92
2022/06/21 13:55:34;;;;;;;1.38;1.27;;;28.90;48.60;;;;;;5016766;28;20203;-92
2022/06/21 13:58:21;;;;;;;1.60;1.50;;;28.90;48.50;;;;;;5016146;28;20210;-92
2022/06/21 14:00:56;;;;;;;1.02;0.90;;;29.00;48.60;;;;;;5016911;28;20257;-91
2022/06/21 14:03:38;;;;;;;1.50;1.30;;;29.00;48.20;;;;;;5016665;28;20233;-92
2022/06/21 14:06:13;;;;;;;1.42;1.30;;;29.00;48.20;;;;;;5016854;28;20203;-92
2022/06/21 14:08:46;;;;;;;1.20;1.20;;;29.20;48.40;;;;;;5017774;28;20223;-92
2022/06/21 14:11:22;;;;;;;1.50;1.40;;;29.30;48.50;;;;;;5019282;28;20215;-93
2022/06/21 14:13:56;;;;;;;5.97;1.42;;;29.40;48.60;;;;;;5014730;28;20242;-89
2022/06/21 14:16:29;;;;;;;1.90;1.48;;;29.30;47.30;;;;;;5015545;28;20211;-89